Time;durP1;ratioP1;P1;durP2;ratioP2;P2;SDS_P1;SDS_P2;PMS_P1;PMS_P2;Temp;Humidity;BMP_temperature;BMP_pressure;BME280_temperature;BME280_humidity;BME280_pressure;Samples;Min_cycle;Max_cycle;Signal;HPM_P1;HPM_P2
2021/12/24 00:00:13;;;;;;;16.52;8.80;;;;;;;14.98;52.83;100387.38;4899720;29;20024;-57
2021/12/24 00:02:38;;;;;;;20.83;9.43;;;;;;;15.00;53.50;100390.75;4898106;29;20039;-57
2021/12/24 00:05:06;;;;;;;19.00;8.60;;;;;;;15.04;52.13;100392.09;4899989;29;20029;-57
2021/12/24 00:07:31;;;;;;;17.85;8.77;;;;;;;15.06;53.35;100392.78;4898756;29;20040;-56
2021/12/24 00:09:57;;;;;;;22.48;9.82;;;;;;;15.03;52.48;100385.84;4898898;29;20410;-56
2021/12/24 00:12:25;;;;;;;19.65;8.55;;;;;;;15.05;52.79;100393.78;4900185;29;20024;-57
2021/12/24 00:14:54;;;;;;;20.50;8.48;;;;;;;15.04;53.70;100381.31;4899901;29;20379;-56
2021/12/24 00:17:26;;;;;;;16.08;8.38;;;;;;;15.04;53.42;100381.31;4898311;29;20111;-56
2021/12/24 00:20:19;;;;;;;19.77;9.10;;;;;;;15.03;53.17;100382.31;4898407;29;20040;-56
2021/12/24 00:36:15;;;;;;;27.67;10.48;;;;;;;15.04;53.10;100362.44;4937275;29;20056;-57
2021/12/24 00:38:40;;;;;;;21.17;9.38;;;;;;;15.06;53.07;100360.41;4920307;29;20043;-57
2021/12/24 00:41:05;;;;;;;19.42;8.73;;;;;;;15.11;52.49;100363.41;4937106;29;20481;-57
2021/12/24 00:43:31;;;;;;;18.83;8.88;;;;;;;15.13;53.89;100353.31;4919761;29;20028;-57
2021/12/24 00:45:56;;;;;;;18.13;8.30;;;;;;;15.16;52.63;100363.75;4936794;29;20034;-57
2021/12/24 00:48:22;;;;;;;14.13;8.05;;;;;;;15.16;52.73;100353.81;4936781;29;20032;-56
2021/12/24 00:56:15;;;;;;;16.20;8.52;;;;;;;15.23;53.26;100342.34;4918413;29;20469;-57
2021/12/24 00:58:41;;;;;;;17.85;8.60;;;;;;;15.26;53.14;100347.41;4919921;29;20038;-56
2021/12/24 01:01:09;;;;;;;15.80;7.97;;;;;;;15.29;52.04;100339.81;4920098;29;20027;-56
2021/12/24 01:03:35;;;;;;;18.67;9.15;;;;;;;15.31;53.06;100332.38;4937099;29;20040;-57
2021/12/24 01:06:00;;;;;;;21.30;9.45;;;;;;;15.31;52.73;100335.06;4936880;29;20024;-57
2021/12/24 01:08:26;;;;;;;17.40;7.78;;;;;;;15.33;53.87;100343.81;4936440;29;20027;-57
2021/12/24 01:10:56;;;;;;;18.10;8.18;;;;;;;15.35;52.52;100347.22;4936266;29;20020;-56
2021/12/24 01:13:22;;;;;;;17.95;8.55;;;;;;;15.34;53.81;100333.88;4936730;29;20393;-57
2021/12/24 01:15:57;;;;;;;18.92;8.32;;;;;;;15.37;53.67;100345.19;4936664;29;20453;-56
2021/12/24 01:18:47;;;;;;;18.65;8.52;;;;;;;15.35;53.38;100327.47;4936738;29;20027;-56
2021/12/24 01:24:09;;;;;;;14.80;8.48;;;;;;;15.39;53.30;100355.78;4901731;29;20130;-56
2021/12/24 01:26:47;;;;;;;20.33;7.88;;;;;;;15.39;53.19;100353.94;4936988;29;20034;-57
2021/12/24 01:29:53;;;;;;;15.55;8.30;;;;;;;15.41;53.78;100351.91;4936694;29;20056;-57
2021/12/24 01:42:48;;;;;;;15.10;7.72;;;;;;;15.49;52.36;100360.06;4924162;29;20043;-57
2021/12/24 01:45:15;;;;;;;11.38;6.93;;;;;;;15.52;52.91;100353.47;4940011;29;20030;-57
2021/12/24 01:47:40;;;;;;;18.25;8.27;;;;;;;15.52;52.44;100358.84;4940157;29;20502;-57
2021/12/24 01:50:06;;;;;;;16.58;8.07;;;;;;;15.53;52.89;100355.97;4939989;29;20024;-56
2021/12/24 01:52:32;;;;;;;19.55;7.95;;;;;;;15.54;52.72;100357.66;4940121;29;20050;-56
2021/12/24 01:54:57;;;;;;;16.02;8.20;;;;;;;15.54;53.72;100356.81;4923522;29;20389;-56
2021/12/24 01:57:22;;;;;;;16.33;7.40;;;;;;;15.55;53.58;100358.50;4923367;29;20044;-56
2021/12/24 01:59:48;;;;;;;19.73;8.13;;;;;;;15.55;53.95;100351.22;4939891;29;20027;-57
2021/12/24 02:02:14;;;;;;;21.23;8.15;;;;;;;15.56;52.42;100343.97;4939904;29;20028;-57
2021/12/24 02:04:39;;;;;;;13.77;7.07;;;;;;;15.57;53.15;100351.94;4923199;29;20035;-57
2021/12/24 02:07:05;;;;;;;20.63;7.80;;;;;;;15.60;52.66;100353.44;4922622;29;20038;-57
2021/12/24 02:09:30;;;;;;;14.20;7.55;;;;;;;15.61;53.58;100352.41;4939460;29;20035;-57
2021/12/24 02:11:56;;;;;;;15.63;7.53;;;;;;;15.61;52.29;100364.03;4939737;29;20024;-57
2021/12/24 02:14:24;;;;;;;14.02;6.63;;;;;;;15.61;52.05;100347.84;4939484;29;20020;-57
2021/12/24 02:30:27;;;;;;;17.48;7.65;;;;;;;15.52;52.15;100327.28;4939992;29;20030;-56
2021/12/24 02:32:53;;;;;;;17.88;6.85;;;;;;;15.53;52.65;100328.97;4939239;29;20032;-57
2021/12/24 02:35:19;;;;;;;10.82;6.50;;;;;;;15.53;52.55;100333.53;4939285;29;20501;-57
2021/12/24 02:37:45;;;;;;;16.08;7.35;;;;;;;15.53;53.64;100331.69;4939464;29;20036;-57
2021/12/24 02:40:11;;;;;;;15.30;7.18;;;;;;;15.53;52.17;100315.47;4939764;29;20604;-56
2021/12/24 02:42:36;;;;;;;13.27;7.65;;;;;;;15.53;52.70;100328.13;4939462;29;20091;-57
2021/12/24 02:45:03;;;;;;;13.82;6.55;;;;;;;15.49;52.99;100308.75;4939457;29;20105;-57
2021/12/24 02:47:41;;;;;;;13.60;7.03;;;;;;;15.52;52.72;100321.88;4921846;29;20126;-57
2021/12/24 02:55:16;;;;;;;17.63;6.32;;;;;;;15.49;52.72;100311.47;4939037;29;20094;-56
2021/12/24 02:57:42;;;;;;;16.05;7.43;;;;;;;15.49;52.83;100305.22;4921946;29;20027;-56
2021/12/24 03:00:19;;;;;;;13.00;7.13;;;;;;;15.51;53.15;100309.41;4939221;29;20036;-57
2021/12/24 03:02:44;;;;;;;16.13;6.95;;;;;;;15.50;52.53;100302.31;4938735;29;20035;-56
2021/12/24 03:05:12;;;;;;;14.52;7.10;;;;;;;15.54;52.68;100300.97;4938966;29;20504;-57
2021/12/24 03:07:38;;;;;;;14.48;6.55;;;;;;;15.55;53.37;100302.63;4939145;29;20050;-56
2021/12/24 03:10:05;;;;;;;13.68;7.15;;;;;;;15.56;53.80;100296.25;4938645;29;20023;-57
2021/12/24 03:12:31;;;;;;;14.70;6.72;;;;;;;15.57;52.37;100297.94;4938273;29;20484;-57
2021/12/24 03:14:57;;;;;;;17.20;7.28;;;;;;;15.58;53.90;100305.00;4938366;29;20040;-56
2021/12/24 03:17:25;;;;;;;19.90;7.03;;;;;;;15.59;53.58;100285.09;4938510;29;20046;-56
2021/12/24 03:19:52;;;;;;;16.50;7.50;;;;;;;15.60;53.66;100286.78;4938533;29;20028;-57
2021/12/24 03:22:40;;;;;;;13.35;6.97;;;;;;;15.60;53.76;100272.44;4921814;29;20034;-57
2021/12/24 03:25:06;;;;;;;13.88;6.55;;;;;;;15.55;53.73;100288.31;4939007;29;20054;-56
2021/12/24 03:27:32;;;;;;;13.35;7.65;;;;;;;15.57;52.79;100287.13;4938402;29;20035;-56
2021/12/24 03:29:58;;;;;;;12.38;6.35;;;;;;;15.59;54.01;100295.88;4938080;29;20031;-57
2021/12/24 03:32:24;;;;;;;11.88;6.65;;;;;;;15.59;53.11;100295.88;4921299;29;20027;-57
2021/12/24 03:34:49;;;;;;;16.23;7.43;;;;;;;15.59;53.32;100290.50;4937666;29;20055;-56
2021/12/24 03:37:14;;;;;;;10.55;6.50;;;;;;;15.61;52.42;100299.25;4938177;29;20122;-57
2021/12/24 03:39:40;;;;;;;14.25;6.45;;;;;;;15.64;53.33;100298.91;4937619;29;20501;-57
2021/12/24 03:42:06;;;;;;;20.35;7.13;;;;;;;15.64;53.40;100298.06;4921246;29;20094;-57
2021/12/24 03:44:51;;;;;;;16.33;6.68;;;;;;;15.68;53.32;100305.66;4938077;29;20046;-57
2021/12/24 03:47:19;;;;;;;14.18;6.80;;;;;;;15.69;53.56;100301.06;4937787;29;20032;-56
2021/12/24 03:52:49;;;;;;;15.77;6.35;;;;;;;15.69;52.66;100307.31;4937780;29;20425;-56
2021/12/24 03:55:15;;;;;;;14.55;6.43;;;;;;;15.66;53.49;100296.84;4938185;29;20536;-57
2021/12/24 03:57:41;;;;;;;14.32;6.97;;;;;;;15.72;52.36;100298.88;4937768;29;20027;-57
2021/12/24 04:00:12;;;;;;;15.73;6.75;;;;;;;15.72;52.49;100296.16;4937772;29;20066;-57
2021/12/24 04:02:38;;;;;;;16.25;6.75;;;;;;;15.77;52.22;100289.41;4937116;29;20032;-57
2021/12/24 04:05:03;;;;;;;17.80;7.10;;;;;;;15.80;52.14;100297.16;4937884;29;20097;-56
2021/12/24 04:07:29;;;;;;;18.00;7.20;;;;;;;15.80;53.40;100291.75;4938072;29;20031;-56
2021/12/24 04:10:02;;;;;;;16.80;6.75;;;;;;;15.83;53.28;100288.72;4937557;29;20032;-57
2021/12/24 04:12:28;;;;;;;15.05;6.35;;;;;;;15.84;52.15;100291.22;4907389;29;20063;-57
2021/12/24 04:14:53;;;;;;;14.65;7.15;;;;;;;15.84;51.92;100288.53;4920585;29;20051;-57
2021/12/24 04:17:20;;;;;;;18.95;7.30;;;;;;;15.81;52.99;100291.56;4921009;29;20125;-57
2021/12/24 04:25:13;;;;;;;23.25;7.22;;;;;;;15.79;53.07;100287.38;4937114;29;20083;-56
2021/12/24 04:27:39;;;;;;;14.10;6.25;;;;;;;15.86;53.59;100301.84;4937810;29;20038;-56
2021/12/24 04:30:12;;;;;;;14.77;7.15;;;;;;;15.87;52.21;100303.53;4937548;29;20031;-57
2021/12/24 04:32:55;;;;;;;17.13;7.10;;;;;;;15.87;52.05;100303.53;4937326;29;20052;-57
2021/12/24 04:51:33;;;;;;;15.65;6.95;;;;;;;15.95;53.29;100303.50;4937135;29;20038;-56
2021/12/24 05:04:36;;;;;;;17.63;6.70;;;;;;;15.98;52.16;100311.25;4936628;29;20035;-56
2021/12/24 05:07:14;;;;;;;14.85;7.80;;;;;;;15.99;53.21;100307.53;4936911;29;20123;-57
2021/12/24 05:09:41;;;;;;;13.20;6.30;;;;;;;16.01;53.25;100310.88;4936636;29;20106;-57
2021/12/24 05:12:07;;;;;;;14.32;6.22;;;;;;;16.00;52.22;100309.19;4919576;29;20548;-57
2021/12/24 05:14:32;;;;;;;12.63;6.85;;;;;;;16.00;53.12;100314.59;4936825;29;20051;-57
2021/12/24 05:22:30;;;;;;;12.80;7.55;;;;;;;16.01;52.73;100313.59;4936385;29;20042;-57
2021/12/24 05:24:56;;;;;;;20.45;7.00;;;;;;;16.02;52.15;100309.88;4936451;29;20031;-57
2021/12/24 05:27:21;;;;;;;20.33;7.35;;;;;;;16.03;53.54;100315.09;4936903;29;20032;-56
2021/12/24 05:29:47;;;;;;;16.52;7.05;;;;;;;16.02;52.15;100301.78;4936919;29;20027;-56
2021/12/24 05:32:12;;;;;;;17.33;6.90;;;;;;;16.05;52.21;100299.53;4936761;29;20148;-57
2021/12/24 05:34:37;;;;;;;23.42;7.05;;;;;;;16.09;52.87;100317.09;4916009;29;20066;-56
2021/12/24 05:37:03;;;;;;;16.63;7.05;;;;;;;16.11;52.10;100316.91;4917753;29;20040;-57
2021/12/24 05:39:29;;;;;;;20.67;7.25;;;;;;;16.10;52.64;100316.09;4918487;29;20040;-57
2021/12/24 05:41:54;;;;;;;26.33;8.63;;;;;;;16.08;52.13;100315.41;4916454;29;20615;-57
2021/12/24 05:44:19;;;;;;;16.42;6.32;;;;;;;16.09;53.15;100322.50;4916694;29;20060;-57
2021/12/24 05:46:45;;;;;;;23.45;7.03;;;;;;;16.05;51.75;100318.44;4917551;29;20042;-56
2021/12/24 05:49:12;;;;;;;13.80;6.15;;;;;;;16.03;52.82;100330.47;4917247;29;20028;-57
2021/12/24 05:51:38;;;;;;;12.27;6.03;;;;;;;16.02;52.08;100328.78;4917703;29;20060;-57
2021/12/24 05:54:03;;;;;;;19.83;6.65;;;;;;;15.98;52.92;100327.44;4917884;29;20021;-56
2021/12/24 05:56:29;;;;;;;19.80;6.40;;;;;;;15.96;52.60;100329.50;4916012;29;20051;-57
2021/12/24 05:58:54;;;;;;;11.77;6.88;;;;;;;15.91;52.87;100329.19;4916876;29;20103;-57
2021/12/24 06:01:21;;;;;;;19.73;6.63;;;;;;;15.94;52.02;100335.06;4916608;29;20035;-56
2021/12/24 06:03:47;;;;;;;15.20;6.90;;;;;;;15.95;53.53;100334.06;4916203;29;20396;-57
2021/12/24 06:06:12;;;;;;;13.35;7.07;;;;;;;15.96;53.31;100324.94;4917702;29;20024;-56
2021/12/24 06:08:38;;;;;;;18.15;7.35;;;;;;;15.98;53.24;100339.09;4917530;29;20028;-56
2021/12/24 06:11:03;;;;;;;14.85;6.85;;;;;;;15.97;52.99;100336.59;4917321;29;20470;-57
2021/12/24 06:13:29;;;;;;;11.52;6.55;;;;;;;15.98;52.46;100335.56;4917147;29;20028;-57
2021/12/24 06:15:55;;;;;;;15.13;6.90;;;;;;;15.97;52.52;100333.88;4917576;29;20497;-56
2021/12/24 06:18:27;;;;;;;20.00;9.70;;;;;;;15.97;51.97;100328.50;4917139;29;20028;-57
2021/12/24 06:20:54;;;;;;;19.58;7.30;;;;;;;15.95;53.74;100327.81;4917172;29;20481;-57
2021/12/24 06:23:21;;;;;;;15.10;7.20;;;;;;;15.90;52.85;100320.25;4917091;29;20028;-56
2021/12/24 06:25:51;;;;;;;20.13;7.32;;;;;;;15.96;52.04;100332.19;4917223;29;20036;-56
2021/12/24 06:28:16;;;;;;;18.10;8.40;;;;;;;15.97;53.47;100320.38;4920401;29;20043;-56
2021/12/24 06:30:42;;;;;;;20.05;8.40;;;;;;;15.96;52.49;100310.59;4920217;29;20035;-57
2021/12/24 06:33:08;;;;;;;17.67;8.18;;;;;;;16.00;53.75;100318.16;4921104;29;20134;-56
2021/12/24 06:35:33;;;;;;;22.27;7.97;;;;;;;15.97;53.29;100307.69;4934407;29;20047;-57
2021/12/24 06:37:59;;;;;;;19.05;7.78;;;;;;;15.98;53.54;100316.66;4939425;29;20063;-57
2021/12/24 06:40:24;;;;;;;21.63;7.55;;;;;;;15.97;52.31;100314.97;4939250;29;20530;-57
2021/12/24 06:42:50;;;;;;;22.65;7.97;;;;;;;15.96;53.13;100313.28;4921992;29;20023;-57
2021/12/24 06:45:21;;;;;;;19.98;9.10;;;;;;;16.00;52.21;100320.00;4938834;29;20493;-56
2021/12/24 06:47:47;;;;;;;21.40;7.30;;;;;;;16.02;52.45;100323.41;4938842;29;20028;-57
2021/12/24 06:50:12;;;;;;;22.80;8.35;;;;;;;16.02;52.14;100323.41;4939289;29;20028;-57
2021/12/24 06:52:38;;;;;;;25.00;9.15;;;;;;;16.04;52.69;100326.75;4939468;29;20028;-57
2021/12/24 06:55:03;;;;;;;21.55;7.85;;;;;;;16.04;52.10;100332.16;4939102;29;20106;-57
2021/12/24 06:57:29;;;;;;;14.45;8.23;;;;;;;16.04;53.04;100338.41;4939379;29;20059;-56
2021/12/24 06:59:54;;;;;;;21.10;8.50;;;;;;;16.03;52.65;100343.97;4939036;29;20508;-56
2021/12/24 07:02:19;;;;;;;27.25;7.78;;;;;;;16.04;53.23;100342.97;4921731;29;20032;-56
2021/12/24 07:04:45;;;;;;;16.27;7.18;;;;;;;16.02;53.06;100339.59;4938802;29;20028;-57
2021/12/24 07:07:10;;;;;;;21.70;9.30;;;;;;;16.05;52.02;100344.66;4938700;29;20032;-57
2021/12/24 07:09:42;;;;;;;20.30;8.32;;;;;;;16.04;53.39;100342.97;4938776;29;20023;-64
2021/12/24 07:12:11;;;;;;;20.50;7.88;;;;;;;16.06;53.57;100340.91;4938721;29;20023;-57
2021/12/24 07:14:38;;;;;;;20.10;7.32;;;;;;;16.09;52.26;100335.16;4921935;29;20393;-57
2021/12/24 07:17:04;;;;;;;24.63;8.32;;;;;;;16.08;52.39;100336.19;4921421;29;20163;-56
2021/12/24 07:19:29;;;;;;;20.85;8.18;;;;;;;16.10;52.53;100342.25;4938966;29;20486;-56
2021/12/24 07:21:54;;;;;;;20.38;8.25;;;;;;;16.08;52.60;100339.72;4921093;29;20035;-57
2021/12/24 07:24:20;;;;;;;17.30;7.82;;;;;;;16.10;53.00;100340.41;4938098;29;20075;-56
2021/12/24 07:26:45;;;;;;;15.88;6.47;;;;;;;16.05;52.09;100317.63;4938204;29;20035;-57
2021/12/24 07:29:11;;;;;;;12.55;5.97;;;;;;;16.11;52.04;100322.31;4943731;29;20046;-57
2021/12/24 07:31:36;;;;;;;24.38;7.60;;;;;;;16.10;51.99;100326.06;4948089;29;20027;-57
2021/12/24 07:34:02;;;;;;;15.98;6.28;;;;;;;16.13;52.84;100331.09;4947551;29;20042;-57
2021/12/24 07:36:27;;;;;;;16.15;8.13;;;;;;;16.12;52.31;100337.50;4946751;28;20019;-57
2021/12/24 07:38:53;;;;;;;12.43;6.47;;;;;;;16.11;52.14;100338.53;4947910;29;20027;-56
2021/12/24 07:41:18;;;;;;;24.50;7.20;;;;;;;16.02;51.83;100331.50;4947336;29;20023;-56
2021/12/24 07:43:44;;;;;;;17.88;6.65;;;;;;;16.10;52.30;100343.09;4950138;29;20027;-56
2021/12/24 07:46:09;;;;;;;21.60;6.95;;;;;;;16.09;53.61;100336.00;4939185;29;20476;-57
2021/12/24 07:48:44;;;;;;;20.45;5.97;;;;;;;16.09;52.43;100343.28;4939188;29;20023;-57
2021/12/24 07:53:34;;;;;;;17.58;7.00;;;;;;;16.13;53.62;100348.16;4939281;29;20019;-57
2021/12/24 07:56:00;;;;;;;20.05;6.72;;;;;;;16.16;53.36;100349.66;4938745;29;20544;-57
2021/12/24 07:58:25;;;;;;;14.48;6.13;;;;;;;16.16;51.91;100353.19;4946180;29;20031;-57
2021/12/24 08:00:51;;;;;;;20.77;7.15;;;;;;;16.18;52.99;100353.88;4958137;29;20481;-57
2021/12/24 08:03:17;;;;;;;21.00;5.88;;;;;;;16.15;51.97;100335.31;4957757;29;20030;-59
2021/12/24 08:05:43;;;;;;;16.25;6.00;;;;;;;16.20;52.33;100340.16;4958142;29;20483;-59
2021/12/24 08:08:10;;;;;;;13.52;7.47;;;;;;;16.20;52.21;100323.94;4958091;29;20031;-59
2021/12/24 08:10:37;;;;;;;17.55;6.78;;;;;;;16.17;52.14;100314.34;4958068;29;20100;-56
2021/12/24 08:13:03;;;;;;;14.75;7.10;;;;;;;16.15;52.92;100327.19;4925869;29;20051;-57
2021/12/24 08:15:29;;;;;;;14.48;5.55;;;;;;;16.15;52.27;100329.91;4958251;29;20035;-56
2021/12/24 08:17:54;;;;;;;17.58;5.93;;;;;;;16.12;53.12;100330.25;4957576;29;20058;-56
2021/12/24 08:20:24;;;;;;;12.90;6.05;;;;;;;16.15;52.19;100337.16;4958069;29;20031;-56
2021/12/24 08:22:50;;;;;;;17.23;5.22;;;;;;;16.18;52.61;100344.91;4941337;29;20027;-57
2021/12/24 08:25:16;;;;;;;17.98;6.47;;;;;;;16.16;52.06;100336.97;4958004;29;20023;-56
2021/12/24 08:27:41;;;;;;;10.80;5.68;;;;;;;16.15;51.81;100339.88;4957908;29;20042;-56
2021/12/24 08:30:08;;;;;;;16.55;6.20;;;;;;;16.17;52.15;100327.00;4957576;29;20023;-56
2021/12/24 08:32:37;;;;;;;17.58;5.57;;;;;;;16.14;52.46;100321.94;4958005;29;20045;-56
2021/12/24 08:35:04;;;;;;;14.27;4.93;;;;;;;16.18;51.80;100329.56;4939901;29;20074;-56
2021/12/24 08:37:30;;;;;;;12.57;5.35;;;;;;;16.20;52.35;100322.09;4957038;29;20026;-56
2021/12/24 08:39:56;;;;;;;20.90;5.55;;;;;;;16.20;53.07;100321.25;4957673;29;20027;-57
2021/12/24 08:42:21;;;;;;;14.45;5.35;;;;;;;16.20;52.53;100316.69;4958054;29;20038;-56
2021/12/24 08:44:47;;;;;;;13.15;5.55;;;;;;;16.25;52.86;100316.16;4957802;29;20078;-57
2021/12/24 08:47:12;;;;;;;18.90;6.40;;;;;;;16.26;52.71;100321.38;4939979;29;20065;-56
2021/12/24 08:49:37;;;;;;;17.75;6.30;;;;;;;16.23;53.17;100316.34;4940148;29;20106;-56
2021/12/24 08:52:04;;;;;;;15.35;6.47;;;;;;;16.27;51.84;100316.84;4957269;29;20038;-56
2021/12/24 08:54:29;;;;;;;13.98;6.80;;;;;;;16.26;51.67;100316.00;4957593;29;20030;-57
2021/12/24 08:56:55;;;;;;;13.38;5.97;;;;;;;16.28;51.72;100318.50;4940146;29;20388;-56
2021/12/24 08:59:21;;;;;;;19.70;7.15;;;;;;;16.30;52.11;100311.06;4957215;29;20049;-56
2021/12/24 09:01:46;;;;;;;17.13;6.32;;;;;;;16.30;51.77;100300.25;4940336;29;20030;-57
2021/12/24 09:04:13;;;;;;;19.30;6.50;;;;;;;16.34;52.88;100306.97;4956679;29;20039;-56
2021/12/24 09:06:39;;;;;;;15.30;6.30;;;;;;;16.37;51.50;100303.06;4939847;29;20035;-56
2021/12/24 09:09:06;;;;;;;18.33;6.00;;;;;;;16.38;52.54;100300.19;4956739;29;20035;-56
2021/12/24 09:11:36;;;;;;;16.40;6.13;;;;;;;16.37;51.48;100309.31;4939953;29;20031;-56
2021/12/24 09:14:02;;;;;;;22.27;7.25;;;;;;;16.36;52.74;100302.22;4956392;29;20110;-56
2021/12/24 09:16:27;;;;;;;18.45;6.20;;;;;;;16.35;52.31;100297.84;4939886;29;20038;-56
2021/12/24 09:19:00;;;;;;;22.13;6.55;;;;;;;16.38;52.45;100294.78;4956925;29;20035;-56
2021/12/24 09:21:26;;;;;;;14.05;5.53;;;;;;;16.39;51.38;100298.34;4939138;29;20027;-56
2021/12/24 09:23:53;;;;;;;16.50;6.03;;;;;;;16.40;51.48;100298.16;4956796;29;20042;-56
2021/12/24 09:26:26;;;;;;;15.52;6.35;;;;;;;16.42;51.60;100301.50;4940078;29;20475;-56
2021/12/24 09:28:51;;;;;;;22.95;6.45;;;;;;;16.43;51.26;100297.78;4956749;29;20045;-56
2021/12/24 09:31:17;;;;;;;20.52;5.90;;;;;;;16.43;52.12;100300.50;4939901;29;20481;-55
2021/12/24 09:33:42;;;;;;;11.82;5.85;;;;;;;16.50;52.02;100314.97;4957112;29;20027;-56
2021/12/24 09:36:09;;;;;;;8.75;4.45;;;;;;;16.49;51.38;100307.06;4956861;29;20059;-57
2021/12/24 09:38:35;;;;;;;16.60;5.78;;;;;;;16.48;52.04;100308.91;4956923;29;20106;-56
2021/12/24 09:41:00;;;;;;;13.10;5.32;;;;;;;16.48;52.12;100314.31;4957042;29;20023;-57
2021/12/24 09:43:26;;;;;;;18.63;6.07;;;;;;;16.52;51.96;100302.13;4907617;29;20122;-56
2021/12/24 09:45:51;;;;;;;14.65;5.68;;;;;;;16.58;52.71;100296.00;4956397;29;20034;-57
2021/12/24 09:48:17;;;;;;;14.40;6.18;;;;;;;16.61;51.25;100303.75;4956543;29;20024;-56
2021/12/24 09:50:42;;;;;;;17.85;6.65;;;;;;;16.70;50.74;100299.13;4939073;29;20031;-57
2021/12/24 09:53:08;;;;;;;12.50;6.57;;;;;;;16.77;51.25;100298.25;4938591;29;20029;-56
2021/12/24 09:55:34;;;;;;;25.23;7.10;;;;;;;16.82;51.96;100293.13;4955845;29;20477;-56
2021/12/24 09:57:59;;;;;;;14.15;5.47;;;;;;;16.84;51.35;100293.78;4955960;29;20062;-57
2021/12/24 10:00:25;;;;;;;13.80;6.53;;;;;;;16.84;51.95;100293.78;4957356;28;20036;-56
2021/12/24 10:02:54;;;;;;;14.63;6.35;;;;;;;16.84;51.92;100293.78;4943505;29;20027;-56
2021/12/24 10:05:38;;;;;;;16.25;5.63;;;;;;;16.89;51.75;100288.66;4959733;29;20027;-56
2021/12/24 10:08:11;;;;;;;21.38;6.30;;;;;;;16.91;51.09;100290.34;4959890;29;20023;-56
2021/12/24 10:10:41;;;;;;;15.38;6.15;;;;;;;16.94;51.54;100292.69;4926599;29;20050;-56
2021/12/24 10:13:32;;;;;;;21.48;6.03;;;;;;;16.99;50.97;100284.84;4959748;29;20050;-57
2021/12/24 10:16:01;;;;;;;17.23;6.88;;;;;;;17.02;51.58;100289.91;4959664;29;20086;-57
2021/12/24 10:18:41;;;;;;;16.48;6.13;;;;;;;17.05;51.24;100292.25;4959885;29;20027;-56
2021/12/24 10:21:24;;;;;;;18.17;5.70;;;;;;;17.02;51.95;100293.44;4959651;29;20098;-56
2021/12/24 10:24:00;;;;;;;12.82;5.75;;;;;;;16.98;51.03;100293.97;4926874;29;20397;-56
2021/12/24 10:26:29;;;;;;;15.75;5.35;;;;;;;16.97;51.71;100300.44;4926650;29;20042;-56
2021/12/24 10:29:06;;;;;;;13.13;5.20;;;;;;;16.92;51.64;100302.84;4942286;29;20023;-56
2021/12/24 10:31:49;;;;;;;15.73;5.68;;;;;;;16.87;51.90;100296.13;4959627;29;20031;-56
2021/12/24 10:34:20;;;;;;;11.75;5.13;;;;;;;16.86;51.67;100299.84;4959212;29;20074;-56
2021/12/24 10:36:49;;;;;;;10.13;5.05;;;;;;;16.86;51.24;100296.31;4921024;29;20076;-56
2021/12/24 10:39:14;;;;;;;14.65;5.15;;;;;;;16.87;52.23;100287.16;4921145;29;20060;-57
2021/12/24 10:41:46;;;;;;;14.93;5.78;;;;;;;16.88;51.42;100294.25;4904216;29;20067;-57
2021/12/24 10:44:19;;;;;;;16.38;5.50;;;;;;;16.85;51.23;100286.50;4921133;29;20456;-56
2021/12/24 10:46:56;;;;;;;13.00;5.45;;;;;;;16.91;50.84;100284.94;4921643;29;20123;-56
2021/12/24 10:49:36;;;;;;;19.85;5.35;;;;;;;16.94;51.42;100287.28;4920204;29;20051;-56
2021/12/24 10:52:27;;;;;;;16.02;5.70;;;;;;;17.00;51.28;100278.44;4919804;29;20542;-57
2021/12/24 10:55:00;;;;;;;17.13;5.07;;;;;;;17.05;51.81;100281.41;4921796;29;20032;-57
2021/12/24 10:57:29;;;;;;;14.80;5.70;;;;;;;17.12;51.20;100271.50;4921263;29;20036;-56
2021/12/24 10:59:57;;;;;;;22.20;5.22;;;;;;;17.18;50.80;100262.66;4919532;29;20048;-56
2021/12/24 11:02:29;;;;;;;17.98;5.85;;;;;;;17.23;50.44;100260.22;4920861;29;20028;-56
2021/12/24 11:04:54;;;;;;;14.45;5.38;;;;;;;17.30;50.75;100255.78;4919644;29;20134;-56
2021/12/24 11:07:40;;;;;;;20.35;5.70;;;;;;;17.41;50.50;100255.31;4920765;29;20108;-57
2021/12/24 11:10:12;;;;;;;12.98;5.38;;;;;;;17.44;51.42;100247.66;4920837;29;20024;-56
2021/12/24 11:12:46;;;;;;;13.30;4.73;;;;;;;17.49;50.38;100244.38;4920639;29;20056;-56
2021/12/24 11:15:27;;;;;;;12.27;4.95;;;;;;;17.55;50.37;100259.91;4920954;29;20265;-56
2021/12/24 11:17:55;;;;;;;11.82;4.20;;;;;;;17.55;50.40;100257.19;4921838;29;20398;-56
2021/12/24 11:20:21;;;;;;;10.93;5.18;;;;;;;17.57;50.06;100252.41;4921567;29;20039;-56
2021/12/24 11:22:56;;;;;;;21.33;5.75;;;;;;;17.58;50.81;100256.81;4921183;29;20031;-56
2021/12/24 11:25:23;;;;;;;10.07;3.95;;;;;;;17.57;51.30;100252.41;4921609;29;20481;-59
2021/12/24 11:27:49;;;;;;;17.13;5.80;;;;;;;17.58;49.82;100251.41;4921818;29;20132;-56
2021/12/24 11:30:16;;;;;;;13.25;4.88;;;;;;;17.55;50.25;100240.09;4919736;29;20032;-56
2021/12/24 11:32:43;;;;;;;16.15;5.50;;;;;;;17.61;50.04;100256.44;4902219;29;20107;-56
2021/12/24 11:35:09;;;;;;;9.38;5.07;;;;;;;17.64;49.79;100250.66;4906876;29;20048;-56
2021/12/24 11:37:34;;;;;;;10.38;4.35;;;;;;;17.68;50.66;100257.34;4919540;29;20036;-56
2021/12/24 11:40:02;;;;;;;8.93;4.95;;;;;;;17.66;50.65;100251.31;4920388;29;20437;-56
2021/12/24 11:42:29;;;;;;;17.15;4.38;;;;;;;17.72;50.09;100260.53;4919255;29;20032;-56
2021/12/24 11:44:55;;;;;;;15.77;4.90;;;;;;;17.71;51.02;100259.69;4919037;29;20060;-57
2021/12/24 11:47:21;;;;;;;10.88;4.20;;;;;;;17.66;50.89;100267.56;4919175;29;20084;-57
2021/12/24 11:49:46;;;;;;;11.45;4.35;;;;;;;17.66;49.94;100262.13;4919405;29;20032;-56
2021/12/24 11:52:12;;;;;;;14.60;4.90;;;;;;;17.67;50.17;100258.38;4920805;29;20363;-57
2021/12/24 11:54:37;;;;;;;15.60;4.75;;;;;;;17.63;50.26;100256.25;4920364;29;20456;-56
2021/12/24 11:57:14;;;;;;;8.60;4.38;;;;;;;17.62;50.29;100260.81;4919046;29;20036;-57
2021/12/24 11:59:40;;;;;;;16.25;4.20;;;;;;;17.61;50.68;100251.03;4937678;29;20036;-56
2021/12/24 12:02:06;;;;;;;12.82;4.90;;;;;;;17.60;50.63;100249.34;4939112;28;20032;-57
2021/12/24 12:04:33;;;;;;;21.88;6.05;;;;;;;17.58;50.31;100253.28;4938815;28;20031;-57
2021/12/24 12:07:17;;;;;;;9.60;3.92;;;;;;;17.60;49.68;100273.72;4938505;29;20446;-56
2021/12/24 12:09:44;;;;;;;13.07;4.32;;;;;;;17.62;50.09;100266.22;4938659;28;20531;-56
2021/12/24 12:12:13;;;;;;;17.00;4.57;;;;;;;17.59;50.97;100261.19;4938686;29;20035;-56
2021/12/24 12:14:38;;;;;;;15.15;4.45;;;;;;;17.60;50.09;100254.75;4938342;29;20031;-56
2021/12/24 12:17:06;;;;;;;15.95;5.45;;;;;;;17.58;49.31;100259.53;4938782;29;20545;-56
2021/12/24 12:22:44;;;;;;;17.95;5.50;;;;;;;17.55;50.88;100261.78;4938898;29;20036;-56
2021/12/24 12:25:12;;;;;;;18.08;4.82;;;;;;;17.46;50.32;100255.56;4937046;29;20080;-59
2021/12/24 12:27:51;;;;;;;12.90;4.38;;;;;;;17.45;50.12;100257.44;4938046;29;20032;-59
2021/12/24 12:30:20;;;;;;;14.88;4.57;;;;;;;17.41;50.32;100258.00;4936757;29;20425;-59
2021/12/24 12:32:46;;;;;;;12.35;4.30;;;;;;;17.37;50.95;100256.69;4937877;28;20078;-58
2021/12/24 12:35:13;;;;;;;11.43;4.78;;;;;;;17.35;50.15;100250.63;4944827;29;20055;-58
2021/12/24 12:37:44;;;;;;;12.70;3.35;;;;;;;17.32;50.05;100243.72;4957233;29;20082;-59
2021/12/24 12:40:13;;;;;;;12.93;3.97;;;;;;;17.32;50.03;100243.72;4957009;28;20031;-59
2021/12/24 12:42:55;;;;;;;11.70;4.40;;;;;;;17.32;50.99;100243.72;4957236;29;20392;-57
2021/12/24 12:45:41;;;;;;;11.85;4.65;;;;;;;17.31;50.43;100238.47;4957769;29;20073;-56
2021/12/24 12:48:09;;;;;;;9.63;4.43;;;;;;;17.31;50.05;100231.19;4956762;28;20031;-56
2021/12/24 12:50:36;;;;;;;12.38;4.38;;;;;;;17.31;50.02;100230.34;4957658;29;20034;-57
2021/12/24 12:53:35;;;;;;;11.38;4.07;;;;;;;17.33;49.63;100228.31;4957257;29;20027;-58
2021/12/24 12:56:20;;;;;;;9.40;4.18;;;;;;;17.31;51.15;100231.19;4956742;29;20486;-58
2021/12/24 12:58:55;;;;;;;13.23;4.20;;;;;;;17.33;49.33;100233.75;4956396;29;20388;-59